Time;durP1;ratioP1;P1;durP2;ratioP2;P2;SDS_P1;SDS_P2;PMS_P1;PMS_P2;Temp;Humidity;BMP_temperature;BMP_pressure;BME280_temperature;BME280_humidity;BME280_pressure;Samples;Min_cycle;Max_cycle;Signal;HPM_P1;HPM_P2
2024/03/15 00:00:05;;;;;;;;;;;;;;;3.29;97.93;96410.88;108093;1288;22519;-85
2024/03/15 00:02:31;;;;;;;;;;;;;;;3.28;97.58;96409.61;107939;1287;123758;-85
2024/03/15 00:04:58;;;;;;;;;;;;;;;3.26;97.69;96406.34;108086;1289;22555;-85
2024/03/15 00:07:25;;;;;;;;;;;;;;;3.24;97.50;96405.94;107908;1285;123983;-85
2024/03/15 00:09:51;;;;;;;;;;;;;;;3.23;97.60;96405.02;108182;1269;23225;-84
2024/03/15 00:12:17;;;;;;;;;;;;;;;3.22;97.49;96400.38;108172;1288;22551;-85
2024/03/15 00:14:44;;;;;;;;;;;;;;;3.20;97.57;96401.86;108137;1285;123859;-85
2024/03/15 00:17:11;;;;;;;;;;;;;;;3.19;97.71;96402.14;108222;1288;24206;-85
2024/03/15 00:19:37;;;;;;;;;;;;;;;3.18;97.83;96402.38;108047;1288;124633;-85
2024/03/15 00:22:03;;;;;;;;;;;;;;;3.16;97.95;96399.48;108215;1283;23022;-85
2024/03/15 00:24:30;;;;;;;;;;;;;;;3.16;97.89;96399.35;108135;1285;22510;-85
2024/03/15 00:26:56;;;;;;;;;;;;;;;3.14;97.86;96398.30;108025;1289;123888;-85
2024/03/15 00:29:22;;;;;;;;;;;;;;;3.13;97.68;96392.04;108181;1289;22555;-85
2024/03/15 00:31:49;;;;;;;;;;;;;;;3.14;98.08;96391.33;108065;1289;124331;-85
2024/03/15 00:34:15;;;;;;;;;;;;;;;3.14;97.64;96391.02;108075;1289;22578;-85
2024/03/15 00:36:41;;;;;;;;;;;;;;;3.13;98.26;96388.13;108065;1289;25406;-85
2024/03/15 00:39:11;;;;;;;;;;;;;;;3.13;98.09;96384.39;108051;1289;123896;-85
2024/03/15 00:41:37;;;;;;;;;;;;;;;3.13;98.37;96384.09;108100;1289;23331;-85
2024/03/15 00:44:05;;;;;;;;;;;;;;;3.12;98.74;96378.45;108032;1289;124081;-85
2024/03/15 00:46:31;;;;;;;;;;;;;;;3.12;98.47;96377.48;108124;1279;24252;-84
2024/03/15 00:48:57;;;;;;;;;;;;;;;3.10;98.39;96379.16;108115;1288;23093;-84
2024/03/15 00:51:25;;;;;;;;;;;;;;;3.10;98.37;96378.71;108204;1288;123642;-84
2024/03/15 00:53:51;;;;;;;;;;;;;;;3.09;97.94;96378.41;108157;1288;22513;-85
2024/03/15 00:56:17;;;;;;;;;;;;;;;3.09;97.95;96379.79;107976;1289;123862;-84
2024/03/15 00:58:44;;;;;;;;;;;;;;;3.10;98.44;96378.88;108132;1287;24787;-84
2024/03/15 01:01:10;;;;;;;;;;;;;;;3.09;98.54;96378.95;107951;1289;124038;-85
2024/03/15 01:03:36;;;;;;;;;;;;;;;3.09;98.77;96380.15;108143;1286;22507;-84
2024/03/15 01:06:03;;;;;;;;;;;;;;;3.09;98.89;96374.48;108187;1285;22828;-85
2024/03/15 01:08:29;;;;;;;;;;;;;;;3.08;98.60;96371.48;107996;1283;123985;-84
2024/03/15 01:10:56;;;;;;;;;;;;;;;3.08;98.67;96367.56;108146;1286;23284;-85
2024/03/15 01:13:22;;;;;;;;;;;;;;;3.08;98.35;96365.64;108054;1289;124068;-85
2024/03/15 01:15:48;;;;;;;;;;;;;;;3.08;98.54;96364.98;108155;1289;22511;-88
2024/03/15 01:18:16;;;;;;;;;;;;;;;3.08;98.69;96366.02;108216;1286;22568;-88
2024/03/15 01:20:42;;;;;;;;;;;;;;;3.07;98.88;96364.76;108090;1289;123832;-88
2024/03/15 01:23:08;;;;;;;;;;;;;;;3.05;99.10;96363.84;108125;1289;22624;-88
2024/03/15 01:25:35;;;;;;;;;;;;;;;3.05;99.06;96361.00;108072;1288;124437;-88
2024/03/15 01:28:05;;;;;;;;;;;;;;;3.03;98.84;96363.23;108188;1288;25397;-88
2024/03/15 01:30:32;;;;;;;;;;;;;;;3.01;98.77;96361.41;108226;1287;22657;-88
2024/03/15 01:32:58;;;;;;;;;;;;;;;3.02;99.22;96360.39;108121;1288;124978;-89
2024/03/15 01:35:34;;;;;;;;;;;;;;;3.04;99.14;96359.73;108169;1288;22510;-88
2024/03/15 01:38:03;;;;;;;;;;;;;;;3.05;99.32;96362.48;108110;1288;124007;-88
2024/03/15 01:40:30;;;;;;;;;;;;;;;3.04;99.07;96361.23;108163;1287;22649;-88
2024/03/15 01:42:57;;;;;;;;;;;;;;;3.02;98.51;96359.68;108168;1288;22471;-89
2024/03/15 01:45:23;;;;;;;;;;;;;;;3.01;98.72;96358.92;108118;1288;124261;-88
2024/03/15 01:47:49;;;;;;;;;;;;;;;3.01;99.07;96359.61;108088;1288;22536;-89
2024/03/15 01:50:16;;;;;;;;;;;;;;;3.00;98.91;96362.55;108072;1288;124214;-88
2024/03/15 01:52:42;;;;;;;;;;;;;;;2.99;98.53;96359.39;108181;1283;22641;-88
2024/03/15 01:55:09;;;;;;;;;;;;;;;2.99;98.52;96357.39;107997;1288;124215;-88
2024/03/15 01:57:35;;;;;;;;;;;;;;;2.99;98.37;96358.61;108181;1285;22627;-88
2024/03/15 02:00:04;;;;;;;;;;;;;;;2.99;98.67;96354.45;108160;1289;23963;-88
2024/03/15 02:02:33;;;;;;;;;;;;;;;2.98;98.60;96353.48;108110;1286;124057;-88
2024/03/15 02:04:59;;;;;;;;;;;;;;;2.99;98.76;96352.07;108302;1287;25157;-88
2024/03/15 02:07:28;;;;;;;;;;;;;;;2.98;98.45;96352.64;108128;1288;124720;-88
2024/03/15 02:09:58;;;;;;;;;;;;;;;2.98;98.75;96351.13;108253;1288;22714;-89
2024/03/15 02:12:27;;;;;;;;;;;;;;;2.97;98.63;96352.27;108151;1283;22626;-88
2024/03/15 02:14:54;;;;;;;;;;;;;;;2.95;98.76;96347.76;108137;1288;124234;-88
2024/03/15 02:17:21;;;;;;;;;;;;;;;2.94;98.89;96350.45;108200;1280;22615;-88
2024/03/15 02:19:47;;;;;;;;;;;;;;;2.93;98.97;96348.80;108102;1282;124788;-87
2024/03/15 02:22:13;;;;;;;;;;;;;;;2.93;98.99;96349.00;108199;1286;24187;-87
2024/03/15 02:24:40;;;;;;;;;;;;;;;2.93;98.86;96348.86;108169;1288;22722;-87
2024/03/15 02:27:08;;;;;;;;;;;;;;;2.92;98.83;96346.86;108096;1282;124205;-85
2024/03/15 02:29:34;;;;;;;;;;;;;;;2.92;98.73;96347.02;108233;1287;22562;-85
2024/03/15 02:32:02;;;;;;;;;;;;;;;2.93;98.86;96348.53;108128;1288;124140;-85
2024/03/15 02:34:28;;;;;;;;;;;;;;;2.92;98.96;96345.48;108206;1288;22471;-85
2024/03/15 02:36:56;;;;;;;;;;;;;;;2.92;98.96;96345.67;108303;1280;22531;-85
2024/03/15 02:39:24;;;;;;;;;;;;;;;2.91;99.23;96344.52;108267;1287;123901;-85
2024/03/15 02:41:51;;;;;;;;;;;;;;;2.92;99.02;96341.95;108338;1280;24202;-84
2024/03/15 02:44:18;;;;;;;;;;;;;;;2.91;99.33;96347.44;108228;1288;124581;-85
2024/03/15 02:46:45;;;;;;;;;;;;;;;2.91;99.29;96347.27;108261;1288;23804;-85
2024/03/15 02:49:11;;;;;;;;;;;;;;;2.91;99.65;96346.63;108163;1288;124191;-85
2024/03/15 02:51:37;;;;;;;;;;;;;;;2.90;99.30;96348.02;108225;1288;22599;-85
2024/03/15 02:54:04;;;;;;;;;;;;;;;2.90;99.36;96348.70;108173;1288;22804;-84
2024/03/15 02:56:30;;;;;;;;;;;;;;;2.91;99.23;96349.54;108014;1286;124217;-84
2024/03/15 02:58:56;;;;;;;;;;;;;;;2.90;99.42;96349.63;108139;1267;22606;-85
2024/03/15 03:01:25;;;;;;;;;;;;;;;2.90;99.55;96351.95;108549;1280;124403;-85
2024/03/15 03:03:51;;;;;;;;;;;;;;;2.91;99.47;96350.21;108731;1272;22467;-85
2024/03/15 03:06:17;;;;;;;;;;;;;;;2.90;99.72;96352.14;108521;1276;23315;-85
2024/03/15 03:08:43;;;;;;;;;;;;;;;2.91;99.69;96353.48;108528;1280;124085;-85
2024/03/15 03:11:11;;;;;;;;;;;;;;;2.90;99.61;96353.38;108659;1276;25356;-85
2024/03/15 03:13:37;;;;;;;;;;;;;;;2.89;99.45;96355.16;108587;1276;124364;-85
2024/03/15 03:16:07;;;;;;;;;;;;;;;2.88;99.49;96355.43;108648;1273;22930;-85
2024/03/15 03:18:33;;;;;;;;;;;;;;;2.88;99.75;96356.63;108685;1273;23737;-85
2024/03/15 03:20:59;;;;;;;;;;;;;;;2.87;99.68;96355.69;108578;1280;124224;-84
2024/03/15 03:23:28;;;;;;;;;;;;;;;2.87;99.72;96356.25;108623;1276;22510;-85
2024/03/15 03:25:55;;;;;;;;;;;;;;;2.87;99.89;96357.77;108561;1280;124115;-85
2024/03/15 03:28:21;;;;;;;;;;;;;;;2.86;99.97;96357.65;108603;1281;24216;-84
2024/03/15 03:30:47;;;;;;;;;;;;;;;2.86;99.95;96358.17;108672;1281;22562;-85
2024/03/15 03:33:14;;;;;;;;;;;;;;;2.86;99.96;96358.84;108613;1273;124047;-85
2024/03/15 03:35:40;;;;;;;;;;;;;;;2.86;99.95;96358.55;108674;1273;22570;-87
2024/03/15 03:38:06;;;;;;;;;;;;;;;2.86;99.71;96359.90;108575;1280;126980;-87
2024/03/15 03:40:33;;;;;;;;;;;;;;;2.86;99.86;96359.06;108777;1279;22561;-87
2024/03/15 03:43:02;;;;;;;;;;;;;;;2.85;99.95;96360.11;108748;1279;22549;-87
2024/03/15 03:45:30;;;;;;;;;;;;;;;2.85;99.90;96359.09;108696;1280;22546;-87
2024/03/15 03:47:57;;;;;;;;;;;;;;;2.85;99.93;96361.90;108670;1269;23145;-87
2024/03/15 03:50:24;;;;;;;;;;;;;;;2.85;99.96;96361.03;108586;1273;124257;-88
2024/03/15 03:52:53;;;;;;;;;;;;;;;2.85;99.77;96362.06;108577;1280;22512;-87
2024/03/15 03:55:19;;;;;;;;;;;;;;;2.85;99.75;96364.40;108570;1280;124652;-87
2024/03/15 03:57:45;;;;;;;;;;;;;;;2.85;99.95;96361.17;108748;1272;22972;-87
2024/03/15 04:00:14;;;;;;;;;;;;;;;2.85;100.00;96362.02;108653;1280;22550;-87
2024/03/15 04:02:47;;;;;;;;;;;;;;;2.84;99.98;96364.34;108594;1279;124301;-87
2024/03/15 04:05:13;;;;;;;;;;;;;;;2.83;99.97;96362.52;108754;1280;22611;-87
2024/03/15 04:07:40;;;;;;;;;;;;;;;2.83;100.00;96361.52;108663;1272;124363;-87
2024/03/15 04:10:06;;;;;;;;;;;;;;;2.83;99.96;96361.20;108579;1275;22596;-88
2024/03/15 04:12:33;;;;;;;;;;;;;;;2.83;99.95;96360.84;108659;1276;22527;-87
2024/03/15 04:15:02;;;;;;;;;;;;;;;2.83;100.00;96359.52;108572;1280;124040;-87
2024/03/15 04:17:29;;;;;;;;;;;;;;;2.83;100.00;96360.39;108625;1276;22641;-87
2024/03/15 04:19:57;;;;;;;;;;;;;;;2.82;100.00;96356.28;108566;1273;124322;-87
2024/03/15 04:22:25;;;;;;;;;;;;;;;2.82;100.00;96352.02;108644;1274;22535;-87
2024/03/15 04:24:52;;;;;;;;;;;;;;;2.82;100.00;96352.77;108722;1280;22513;-87
2024/03/15 04:27:18;;;;;;;;;;;;;;;2.82;100.00;96352.23;108570;1280;124400;-87
2024/03/15 04:29:44;;;;;;;;;;;;;;;2.82;100.00;96351.15;108510;1280;22483;-87
2024/03/15 04:32:11;;;;;;;;;;;;;;;2.82;100.00;96347.41;108571;1280;124328;-87
2024/03/15 04:34:37;;;;;;;;;;;;;;;2.81;100.00;96348.66;108620;1280;22663;-87
2024/03/15 04:37:09;;;;;;;;;;;;;;;2.82;100.00;96346.27;108506;1279;124842;-87
2024/03/15 04:39:38;;;;;;;;;;;;;;;2.82;100.00;96345.89;110049;1278;23000;-85
2024/03/15 04:42:04;;;;;;;;;;;;;;;2.82;100.00;96343.50;110010;1280;22445;-85
2024/03/15 04:44:36;;;;;;;;;;;;;;;2.83;100.00;96344.23;109958;1276;124442;-85
2024/03/15 04:47:03;;;;;;;;;;;;;;;2.85;100.00;96348.55;110013;1277;23002;-85
2024/03/15 04:49:29;;;;;;;;;;;;;;;2.86;100.00;96345.55;109910;1272;124503;-85
2024/03/15 04:51:55;;;;;;;;;;;;;;;2.88;100.00;96346.23;110071;1270;22358;-85
2024/03/15 04:54:22;;;;;;;;;;;;;;;2.89;100.00;96344.01;110070;1259;22475;-85
2024/03/15 04:56:48;;;;;;;;;;;;;;;2.91;100.00;96341.81;109963;1279;124496;-85
2024/03/15 04:59:17;;;;;;;;;;;;;;;2.91;99.99;96338.19;110057;1279;22450;-85
2024/03/15 05:01:43;;;;;;;;;;;;;;;2.92;100.00;96338.81;109950;1280;124400;-85
2024/03/15 05:04:10;;;;;;;;;;;;;;;2.93;99.98;96335.66;110057;1280;22374;-85
2024/03/15 05:06:36;;;;;;;;;;;;;;;2.95;100.00;96338.09;109998;1275;22368;-85
2024/03/15 05:09:04;;;;;;;;;;;;;;;2.96;100.00;96339.86;109955;1273;124312;-85
2024/03/15 05:11:31;;;;;;;;;;;;;;;2.97;100.00;96335.52;110012;1280;23230;-85
2024/03/15 05:13:58;;;;;;;;;;;;;;;2.98;100.00;96338.94;109942;1280;124270;-85
2024/03/15 05:16:24;;;;;;;;;;;;;;;3.00;99.99;96335.70;110055;1274;22380;-85
2024/03/15 05:18:51;;;;;;;;;;;;;;;3.01;100.00;96333.75;109991;1275;23023;-85
2024/03/15 05:21:17;;;;;;;;;;;;;;;3.03;100.00;96338.04;110024;1276;124222;-85
2024/03/15 05:23:43;;;;;;;;;;;;;;;3.06;100.00;96336.95;109339;1280;25391;-85
2024/03/15 05:26:10;;;;;;;;;;;;;;;3.08;100.00;96340.14;108662;1280;124866;-85
2024/03/15 05:28:36;;;;;;;;;;;;;;;3.11;99.94;96340.77;108642;1280;22546;-85
2024/03/15 05:31:03;;;;;;;;;;;;;;;3.13;100.00;96346.27;108720;1280;22557;-85
2024/03/15 05:33:30;;;;;;;;;;;;;;;3.14;100.00;96348.47;108729;1272;22595;-84
2024/03/15 05:35:56;;;;;;;;;;;;;;;3.16;100.00;96345.58;108689;1266;22536;-85
2024/03/15 05:38:25;;;;;;;;;;;;;;;3.18;100.00;96351.05;108577;1272;124401;-85
2024/03/15 05:40:51;;;;;;;;;;;;;;;3.20;100.00;96350.35;108674;1280;25409;-85
2024/03/15 05:43:18;;;;;;;;;;;;;;;3.23;100.00;96356.95;108496;1275;124839;-85
2024/03/15 05:45:44;;;;;;;;;;;;;;;3.26;100.00;96354.64;108641;1280;22807;-85
2024/03/15 05:48:10;;;;;;;;;;;;;;;3.29;100.00;96352.67;108648;1277;22505;-85
2024/03/15 05:50:36;;;;;;;;;;;;;;;3.32;100.00;96352.55;108575;1276;124300;-85
2024/03/15 05:53:03;;;;;;;;;;;;;;;3.35;100.00;96351.77;108636;1262;24180;-85
2024/03/15 05:55:31;;;;;;;;;;;;;;;3.38;100.00;96352.05;108532;1274;124830;-85
2024/03/15 05:57:58;;;;;;;;;;;;;;;3.41;100.00;96349.89;108645;1280;24203;-86
2024/03/15 06:00:24;;;;;;;;;;;;;;;3.44;100.00;96352.33;108651;1280;24204;-85
2024/03/15 06:02:51;;;;;;;;;;;;;;;3.47;100.00;96352.05;108571;1273;124277;-85
2024/03/15 06:05:23;;;;;;;;;;;;;;;3.50;100.00;96352.80;108690;1280;22502;-85
2024/03/15 06:07:50;;;;;;;;;;;;;;;3.53;100.00;96350.48;108460;1275;124276;-85
2024/03/15 06:10:16;;;;;;;;;;;;;;;3.56;100.00;96352.20;108646;1280;22536;-85
2024/03/15 06:12:43;;;;;;;;;;;;;;;3.60;100.00;96352.63;108634;1275;22549;-85
2024/03/15 06:15:11;;;;;;;;;;;;;;;3.64;100.00;96355.31;108584;1280;124257;-85
2024/03/15 06:17:39;;;;;;;;;;;;;;;3.67;100.00;96355.54;108712;1280;22510;-85
2024/03/15 06:20:09;;;;;;;;;;;;;;;3.71;100.00;96354.14;108515;1275;124295;-85
2024/03/15 06:22:37;;;;;;;;;;;;;;;3.76;100.00;96356.64;108630;1280;25301;-85
2024/03/15 06:25:05;;;;;;;;;;;;;;;3.79;100.00;96358.70;108518;1270;124417;-85
2024/03/15 06:27:32;;;;;;;;;;;;;;;3.83;100.00;96362.63;108680;1277;22730;-85
2024/03/15 06:29:58;;;;;;;;;;;;;;;3.87;100.00;96363.07;108655;1280;22787;-85
2024/03/15 06:32:29;;;;;;;;;;;;;;;3.92;100.00;96365.24;108572;1273;124307;-84
2024/03/15 06:34:57;;;;;;;;;;;;;;;3.96;100.00;96364.36;108639;1275;22781;-85
2024/03/15 06:37:25;;;;;;;;;;;;;;;4.00;100.00;96362.27;108574;1280;124947;-84
2024/03/15 06:42:24;;;;;;;;;;;;;;;4.08;100.00;96358.50;108651;1275;23210;-84
2024/03/15 06:45:01;;;;;;;;;;;;;;;4.11;100.00;96357.67;108573;1274;124239;-87
2024/03/15 06:47:28;;;;;;;;;;;;;;;4.16;100.00;96362.02;108624;1270;22663;-87
2024/03/15 06:49:54;;;;;;;;;;;;;;;4.19;100.00;96357.69;108599;1281;124423;-87
2024/03/15 06:52:36;;;;;;;;;;;;;;;4.25;100.00;96361.18;108688;1280;22701;-87
2024/03/15 06:55:04;;;;;;;;;;;;;;;4.30;100.00;96360.69;108606;1280;125004;-87
2024/03/15 06:57:34;;;;;;;;;;;;;;;4.35;100.00;96355.95;109942;1276;22394;-87
2024/03/15 07:00:08;;;;;;;;;;;;;;;4.41;100.00;96361.58;110044;1280;23026;-87
2024/03/15 07:02:36;;;;;;;;;;;;;;;4.47;100.00;96363.32;108619;1277;124298;-87
2024/03/15 07:05:04;;;;;;;;;;;;;;;4.55;100.00;96364.01;108710;1269;22596;-87
2024/03/15 07:07:31;;;;;;;;;;;;;;;4.61;100.00;96364.64;108560;1278;124443;-87
2024/03/15 07:09:57;;;;;;;;;;;;;;;4.67;100.00;96364.88;108711;1280;22626;-86
2024/03/15 07:12:23;;;;;;;;;;;;;;;4.73;100.00;96359.99;108576;1280;22496;-87
2024/03/15 07:14:49;;;;;;;;;;;;;;;4.79;100.00;96360.98;108649;1277;124367;-87
2024/03/15 07:17:16;;;;;;;;;;;;;;;4.85;100.00;96363.30;108652;1270;23248;-88
2024/03/15 07:19:42;;;;;;;;;;;;;;;4.93;100.00;96364.18;108506;1275;124746;-87
2024/03/15 07:22:08;;;;;;;;;;;;;;;4.99;100.00;96364.00;108717;1275;22693;-87
2024/03/15 07:24:36;;;;;;;;;;;;;;;5.06;100.00;96366.42;108676;1280;23984;-88
2024/03/15 07:27:04;;;;;;;;;;;;;;;5.14;100.00;96364.16;108618;1272;124795;-87
2024/03/15 07:29:30;;;;;;;;;;;;;;;5.23;100.00;96366.42;108703;1272;22551;-87
2024/03/15 07:31:57;;;;;;;;;;;;;;;5.32;100.00;96365.63;108539;1275;124610;-86
2024/03/15 07:34:24;;;;;;;;;;;;;;;5.40;100.00;96365.77;108776;1272;24743;-86
2024/03/15 07:36:56;;;;;;;;;;;;;;;5.48;100.00;96365.16;108710;1273;24242;-86
2024/03/15 07:39:23;;;;;;;;;;;;;;;5.57;100.00;96363.89;108591;1273;124101;-86
2024/03/15 07:41:49;;;;;;;;;;;;;;;5.65;100.00;96368.25;108692;1279;22468;-86
2024/03/15 07:44:16;;;;;;;;;;;;;;;5.74;100.00;96364.98;108646;1280;124658;-86
2024/03/15 07:46:42;;;;;;;;;;;;;;;5.86;100.00;96364.64;108680;1274;25132;-86
2024/03/15 07:49:08;;;;;;;;;;;;;;;5.94;100.00;96363.65;108601;1280;124443;-86
2024/03/15 07:51:35;;;;;;;;;;;;;;;6.04;100.00;96368.00;108715;1276;22507;-86
2024/03/15 07:54:03;;;;;;;;;;;;;;;6.15;100.00;96371.42;108659;1280;25372;-86
2024/03/15 07:56:30;;;;;;;;;;;;;;;6.25;100.00;96369.64;108597;1280;124528;-86
2024/03/15 07:58:57;;;;;;;;;;;;;;;6.38;100.00;96375.98;108698;1280;23214;-87
2024/03/15 08:01:23;;;;;;;;;;;;;;;6.49;100.00;96378.05;108563;1274;124431;-87
2024/03/15 08:03:49;;;;;;;;;;;;;;;6.61;100.00;96376.99;108632;1280;22455;-87
2024/03/15 08:06:15;;;;;;;;;;;;;;;6.71;100.00;96373.29;108700;1275;22499;-86
2024/03/15 08:08:42;;;;;;;;;;;;;;;6.79;100.00;96371.55;108562;1280;124182;-86
2024/03/15 08:11:08;;;;;;;;;;;;;;;6.90;100.00;96369.90;108630;1280;22446;-86
2024/03/15 08:13:38;;;;;;;;;;;;;;;7.03;100.00;96374.19;108556;1274;124391;-86
2024/03/15 08:16:23;;;;;;;;;;;;;;;7.14;100.00;96377.13;108746;1279;22474;-87
2024/03/15 08:18:49;;;;;;;;;;;;;;;7.27;100.00;96377.36;108711;1279;22511;-87
2024/03/15 08:21:15;;;;;;;;;;;;;;;7.37;100.00;96380.41;108579;1274;124159;-87
2024/03/15 08:23:45;;;;;;;;;;;;;;;7.48;100.00;96381.83;108828;1267;22468;-86
2024/03/15 08:26:14;;;;;;;;;;;;;;;7.60;100.00;96378.71;109201;1280;124814;-87
2024/03/15 08:28:40;;;;;;;;;;;;;;;7.70;100.00;96381.63;110063;1279;23172;-87
2024/03/15 08:31:07;;;;;;;;;;;;;;;7.81;99.67;96384.84;110003;1275;124288;-87
2024/03/15 08:33:34;;;;;;;;;;;;;;;7.91;97.93;96379.12;110064;1279;23159;-87
2024/03/15 08:36:00;;;;;;;;;;;;;;;8.01;96.55;96380.54;110110;1279;22378;-87
2024/03/15 08:38:26;;;;;;;;;;;;;;;8.10;96.47;96380.41;109938;1280;124699;-87
2024/03/15 08:40:53;;;;;;;;;;;;;;;8.21;95.52;96386.07;108886;1272;22834;-86
2024/03/15 08:43:19;;;;;;;;;;;;;;;8.29;93.88;96383.42;108644;1279;124231;-87
2024/03/15 08:45:49;;;;;;;;;;;;;;;8.37;94.33;96380.36;108645;1280;22736;-86
2024/03/15 08:48:17;;;;;;;;;;;;;;;8.44;94.32;96381.67;108579;1281;22621;-86
2024/03/15 08:50:46;;;;;;;;;;;;;;;8.52;94.57;96379.61;108574;1280;124026;-87
2024/03/15 08:53:12;;;;;;;;;;;;;;;8.59;92.97;96378.80;108653;1277;22532;-87
2024/03/15 08:55:41;;;;;;;;;;;;;;;8.65;92.52;96375.73;108541;1280;124211;-87
2024/03/15 08:58:09;;;;;;;;;;;;;;;8.70;91.14;96375.55;110021;1280;22467;-87
2024/03/15 09:00:38;;;;;;;;;;;;;;;8.76;91.27;96375.52;108981;1280;23495;-87
2024/03/15 09:03:05;;;;;;;;;;;;;;;8.84;90.87;96375.58;108553;1278;124196;-86
2024/03/15 09:05:32;;;;;;;;;;;;;;;8.90;90.95;96371.50;108725;1272;22582;-87
2024/03/15 09:07:58;;;;;;;;;;;;;;;8.95;90.69;96366.66;108525;1280;124114;-86
2024/03/15 09:10:25;;;;;;;;;;;;;;;9.00;89.37;96369.94;108634;1273;23037;-86
2024/03/15 09:12:51;;;;;;;;;;;;;;;9.10;89.36;96373.17;108749;1279;23675;-87
2024/03/15 09:15:20;;;;;;;;;;;;;;;9.17;88.94;96374.04;108550;1278;124284;-87
2024/03/15 09:17:49;;;;;;;;;;;;;;;9.21;89.53;96372.30;108776;1272;22626;-87
2024/03/15 09:20:19;;;;;;;;;;;;;;;9.27;88.30;96371.37;108622;1278;124836;-86
2024/03/15 09:22:47;;;;;;;;;;;;;;;9.33;87.50;96370.55;108702;1280;23108;-87
2024/03/15 09:25:22;;;;;;;;;;;;;;;9.40;88.47;96371.79;108705;1275;124324;-87
2024/03/15 09:27:52;;;;;;;;;;;;;;;9.47;88.16;96366.71;108778;1280;22532;-87
2024/03/15 09:30:20;;;;;;;;;;;;;;;9.52;87.86;96372.42;108710;1280;24207;-87
2024/03/15 09:32:48;;;;;;;;;;;;;;;9.59;87.25;96370.98;108604;1280;124684;-87
2024/03/15 09:35:15;;;;;;;;;;;;;;;9.69;88.29;96368.68;108646;1280;22563;-86
2024/03/15 09:37:50;;;;;;;;;;;;;;;9.76;87.59;96367.09;108541;1280;124439;-86
2024/03/15 09:40:18;;;;;;;;;;;;;;;9.83;86.05;96365.15;108578;1274;170109;-86
2024/03/15 09:42:54;;;;;;;;;;;;;;;9.87;83.30;96366.20;108668;1277;22510;-86
2024/03/15 09:45:26;;;;;;;;;;;;;;;9.93;86.69;96363.27;108501;1280;124011;-87
2024/03/15 09:47:52;;;;;;;;;;;;;;;9.99;85.45;96360.19;110074;1275;23173;-87
2024/03/15 09:50:23;;;;;;;;;;;;;;;10.02;85.73;96355.67;109946;1280;124405;-87
2024/03/15 09:52:51;;;;;;;;;;;;;;;10.08;85.87;96357.13;108923;1275;22535;-87
2024/03/15 09:55:17;;;;;;;;;;;;;;;10.16;86.10;96357.56;109904;1275;124536;-87
2024/03/15 09:57:43;;;;;;;;;;;;;;;10.22;84.81;96356.05;110027;1275;22384;-87
2024/03/15 10:00:12;;;;;;;;;;;;;;;10.29;85.34;96350.21;110018;1278;22429;-87
2024/03/15 10:02:39;;;;;;;;;;;;;;;10.40;84.80;96349.92;109915;1278;125077;-87
2024/03/15 10:05:07;;;;;;;;;;;;;;;10.50;84.01;96352.23;109993;1278;22403;-88
2024/03/15 10:07:35;;;;;;;;;;;;;;;10.58;83.98;96351.64;109885;1274;124698;-87
2024/03/15 10:10:02;;;;;;;;;;;;;;;10.64;83.39;96348.55;110024;1280;22459;-87
2024/03/15 10:12:29;;;;;;;;;;;;;;;10.69;83.10;96348.77;110011;1281;22463;-87
2024/03/15 10:14:57;;;;;;;;;;;;;;;10.76;82.18;96347.10;109969;1279;124498;-87
2024/03/15 10:17:24;;;;;;;;;;;;;;;10.83;82.87;96343.77;110030;1280;22410;-88
2024/03/15 10:19:50;;;;;;;;;;;;;;;10.92;82.40;96341.83;109950;1275;124341;-88
2024/03/15 10:22:16;;;;;;;;;;;;;;;10.94;81.71;96339.02;109989;1275;22379;-87
2024/03/15 10:24:43;;;;;;;;;;;;;;;10.97;81.03;96339.91;110045;1276;22380;-88
2024/03/15 10:27:12;;;;;;;;;;;;;;;11.00;80.91;96339.10;108557;1275;125040;-87
2024/03/15 10:29:39;;;;;;;;;;;;;;;11.06;80.23;96338.04;108564;1280;23817;-87
2024/03/15 10:32:07;;;;;;;;;;;;;;;11.11;80.49;96339.17;108521;1280;124437;-87
2024/03/15 10:34:33;;;;;;;;;;;;;;;11.17;81.02;96337.78;109964;1277;22524;-87
2024/03/15 10:36:59;;;;;;;;;;;;;;;11.23;81.92;96341.92;110020;1275;22397;-88
2024/03/15 10:39:26;;;;;;;;;;;;;;;11.27;80.83;96334.88;109194;1280;124325;-87
2024/03/15 10:41:52;;;;;;;;;;;;;;;11.32;78.27;96337.11;108694;1280;25395;-87
2024/03/15 10:44:19;;;;;;;;;;;;;;;11.35;77.85;96336.09;108554;1280;124177;-86
2024/03/15 10:46:45;;;;;;;;;;;;;;;11.32;76.75;96334.00;108670;1275;22498;-87
2024/03/15 10:49:13;;;;;;;;;;;;;;;11.33;77.58;96330.88;108604;1279;123874;-87
2024/03/15 10:51:40;;;;;;;;;;;;;;;11.41;79.15;96327.84;108541;1279;25381;-86
2024/03/15 10:54:08;;;;;;;;;;;;;;;11.46;77.41;96323.11;108676;1275;23885;-87
2024/03/15 10:56:34;;;;;;;;;;;;;;;11.49;77.23;96323.05;108579;1281;124428;-87
2024/03/15 10:59:00;;;;;;;;;;;;;;;11.55;77.70;96321.66;108648;1280;22544;-86
2024/03/15 11:01:30;;;;;;;;;;;;;;;11.63;76.83;96322.27;108537;1275;124806;-87
2024/03/15 11:03:56;;;;;;;;;;;;;;;11.71;77.68;96321.70;109313;1280;22505;-87
2024/03/15 11:06:37;;;;;;;;;;;;;;;11.80;76.85;96317.73;108545;1278;22507;-87
2024/03/15 11:09:15;;;;;;;;;;;;;;;11.88;76.19;96318.39;108603;1275;124390;-87
2024/03/15 11:11:41;;;;;;;;;;;;;;;11.95;74.84;96318.63;108697;1279;22520;-87
2024/03/15 11:14:13;;;;;;;;;;;;;;;11.99;74.93;96319.33;108563;1275;124469;-87
2024/03/15 11:16:40;;;;;;;;;;;;;;;12.02;75.75;96318.19;108681;1279;22506;-87
2024/03/15 11:19:06;;;;;;;;;;;;;;;12.07;73.55;96318.70;108631;1274;124562;-87
2024/03/15 11:21:33;;;;;;;;;;;;;;;12.09;73.49;96311.63;108773;1280;22563;-87
2024/03/15 11:24:10;;;;;;;;;;;;;;;12.14;74.63;96308.59;108658;1275;23181;-87
2024/03/15 11:26:36;;;;;;;;;;;;;;;12.24;75.16;96308.73;109552;1279;124410;-87
2024/03/15 11:29:03;;;;;;;;;;;;;;;12.31;74.14;96309.67;110080;1272;22397;-87
2024/03/15 11:31:29;;;;;;;;;;;;;;;12.45;74.93;96303.27;109182;1278;124253;-87
2024/03/15 11:33:57;;;;;;;;;;;;;;;12.56;73.99;96304.09;108655;1280;22555;-87
2024/03/15 11:36:25;;;;;;;;;;;;;;;12.57;73.98;96297.04;108633;1280;22535;-87
2024/03/15 11:38:51;;;;;;;;;;;;;;;12.60;73.57;96292.14;108496;1280;124409;-87
2024/03/15 11:41:20;;;;;;;;;;;;;;;12.67;74.68;96290.88;108609;1280;22537;-86
2024/03/15 11:43:52;;;;;;;;;;;;;;;12.73;73.60;96289.25;108587;1280;123791;-86
2024/03/15 11:46:19;;;;;;;;;;;;;;;12.76;73.43;96291.42;108734;1280;22538;-87
2024/03/15 11:48:46;;;;;;;;;;;;;;;12.79;73.58;96286.21;108720;1280;24236;-87
2024/03/15 11:51:13;;;;;;;;;;;;;;;12.81;73.15;96287.61;108546;1280;124417;-84
2024/03/15 11:53:39;;;;;;;;;;;;;;;12.81;73.62;96282.77;108628;1278;22502;-85
2024/03/15 11:56:07;;;;;;;;;;;;;;;12.82;73.08;96281.44;108498;1280;124605;-85
2024/03/15 11:58:38;;;;;;;;;;;;;;;12.86;73.02;96281.27;110026;1275;22402;-85
2024/03/15 12:01:05;;;;;;;;;;;;;;;12.90;72.72;96278.34;108486;1280;124521;-86
2024/03/15 12:03:32;;;;;;;;;;;;;;;12.97;72.79;96276.17;108621;1275;22460;-85
2024/03/15 12:06:00;;;;;;;;;;;;;;;13.04;71.28;96276.75;108633;1280;23261;-84
2024/03/15 12:08:28;;;;;;;;;;;;;;;13.08;70.86;96274.38;108540;1273;123727;-84
2024/03/15 12:10:56;;;;;;;;;;;;;;;13.06;70.05;96276.70;108774;1280;22554;-84
2024/03/15 12:13:25;;;;;;;;;;;;;;;13.07;72.34;96274.74;108567;1278;123849;-84
2024/03/15 12:15:52;;;;;;;;;;;;;;;13.09;72.08;96278.15;108670;1279;22661;-84
2024/03/15 12:18:19;;;;;;;;;;;;;;;13.07;71.26;96273.14;108707;1280;22674;-84
2024/03/15 12:20:45;;;;;;;;;;;;;;;13.06;71.53;96270.65;108533;1278;123861;-84
2024/03/15 12:23:15;;;;;;;;;;;;;;;13.06;72.37;96269.69;108747;1279;24223;-84
2024/03/15 12:25:41;;;;;;;;;;;;;;;13.08;71.70;96269.92;108546;1278;124018;-84
2024/03/15 12:28:10;;;;;;;;;;;;;;;13.10;72.03;96268.73;108697;1280;22752;-84
2024/03/15 12:30:40;;;;;;;;;;;;;;;13.15;71.23;96268.92;108666;1277;22709;-84
2024/03/15 12:33:07;;;;;;;;;;;;;;;13.20;71.82;96267.23;108660;1279;123922;-84
2024/03/15 12:35:33;;;;;;;;;;;;;;;13.24;71.47;96269.77;110132;1276;23465;-85
2024/03/15 12:38:00;;;;;;;;;;;;;;;13.28;73.08;96268.31;109989;1275;123655;-84
2024/03/15 12:40:26;;;;;;;;;;;;;;;13.31;72.46;96268.42;110063;1275;22384;-85